Time;durP1;ratioP1;P1;durP2;ratioP2;P2;SDS_P1;SDS_P2;PMS_P1;PMS_P2;Temp;Humidity;BMP_temperature;BMP_pressure;BME280_temperature;BME280_humidity;BME280_pressure;Samples;Min_cycle;Max_cycle;Signal;HPM_P1;HPM_P2
2020/12/10 00:00:10;;;;;;;0.80;0.75;;;14.10;68.30;;;;;;4992572;28;20468;-71
2020/12/10 00:02:35;;;;;;;1.35;0.90;;;14.20;68.30;;;;;;4976747;28;20046;-71
2020/12/10 00:05:01;;;;;;;1.15;0.80;;;14.10;68.40;;;;;;4969899;28;20567;-71
2020/12/10 00:07:27;;;;;;;0.88;0.80;;;14.20;68.40;;;;;;4989215;28;20100;-72
2020/12/10 00:09:54;;;;;;;1.52;1.20;;;14.20;68.30;;;;;;4991906;28;20034;-71
2020/12/10 00:12:20;;;;;;;1.10;1.00;;;14.20;68.30;;;;;;4992189;28;20046;-72
2020/12/10 00:14:46;;;;;;;1.10;0.98;;;14.20;68.30;;;;;;4993442;28;20038;-71
2020/12/10 00:17:12;;;;;;;1.52;1.23;;;14.20;68.30;;;;;;4991694;28;20069;-71
2020/12/10 00:19:41;;;;;;;1.15;1.05;;;14.10;68.30;;;;;;4988485;28;20030;-71
2020/12/10 00:22:10;;;;;;;1.25;0.93;;;14.10;68.30;;;;;;4973291;28;20050;-72
2020/12/10 00:24:35;;;;;;;1.00;0.82;;;14.10;68.30;;;;;;4974019;28;20045;-72
2020/12/10 00:27:01;;;;;;;0.77;0.70;;;14.20;68.40;;;;;;4975875;28;20050;-72
2020/12/10 00:29:26;;;;;;;1.15;1.00;;;14.20;68.30;;;;;;4992423;28;20062;-73
2020/12/10 00:31:52;;;;;;;1.08;1.00;;;14.10;68.30;;;;;;4993520;28;20396;-72
2020/12/10 00:34:18;;;;;;;0.90;0.80;;;14.10;68.30;;;;;;4988891;28;20038;-74
2020/12/10 00:36:43;;;;;;;0.82;0.70;;;14.10;68.30;;;;;;4975468;28;20038;-73
2020/12/10 00:39:09;;;;;;;1.00;0.93;;;14.20;68.30;;;;;;4972353;28;20043;-71
2020/12/10 00:41:35;;;;;;;1.02;0.93;;;14.10;68.30;;;;;;4975300;28;20043;-77
2020/12/10 00:44:04;;;;;;;1.15;0.85;;;14.10;68.40;;;;;;4972613;28;20034;-72
2020/12/10 00:46:30;;;;;;;0.70;0.70;;;14.10;68.30;;;;;;4990652;28;20046;-72
2020/12/10 00:48:56;;;;;;;1.10;0.90;;;14.20;68.40;;;;;;4974700;28;20177;-72
2020/12/10 00:51:21;;;;;;;1.30;0.77;;;14.10;68.40;;;;;;4991730;28;20492;-73
2020/12/10 00:53:47;;;;;;;1.13;1.02;;;14.20;68.30;;;;;;4985331;28;20121;-72
2020/12/10 00:56:13;;;;;;;0.80;0.77;;;14.10;68.30;;;;;;4979499;28;20369;-71
2020/12/10 00:58:39;;;;;;;0.93;0.82;;;14.20;68.40;;;;;;4992213;28;20038;-72
2020/12/10 01:01:04;;;;;;;1.08;0.90;;;14.10;68.40;;;;;;4991122;28;20042;-73
2020/12/10 01:03:30;;;;;;;1.13;0.90;;;14.10;68.30;;;;;;4991449;28;20042;-72
2020/12/10 01:05:56;;;;;;;0.98;0.93;;;14.10;68.40;;;;;;4993127;28;20048;-72
2020/12/10 01:08:22;;;;;;;1.45;0.98;;;14.10;68.40;;;;;;4989620;28;20140;-71
2020/12/10 01:10:48;;;;;;;1.05;0.77;;;14.10;68.40;;;;;;4991907;28;20110;-71
2020/12/10 01:13:13;;;;;;;1.13;0.80;;;14.10;68.40;;;;;;4991633;28;20133;-72
2020/12/10 01:15:39;;;;;;;1.08;0.90;;;14.10;68.40;;;;;;4990326;28;20121;-72
2020/12/10 01:18:05;;;;;;;1.63;1.52;;;14.10;68.40;;;;;;4991633;28;20130;-72
2020/12/10 01:20:30;;;;;;;0.85;0.85;;;14.10;68.40;;;;;;4992490;28;20137;-71
2020/12/10 01:22:56;;;;;;;0.85;0.77;;;14.10;68.40;;;;;;4991988;28;20502;-72
2020/12/10 01:25:21;;;;;;;1.23;1.00;;;14.10;68.30;;;;;;4991277;28;20040;-72
2020/12/10 01:27:47;;;;;;;1.17;0.75;;;14.10;68.30;;;;;;4991757;28;20035;-71
2020/12/10 01:30:13;;;;;;;0.80;0.80;;;14.10;68.30;;;;;;4991351;28;20050;-71
2020/12/10 01:32:38;;;;;;;1.15;0.88;;;14.20;68.30;;;;;;4975249;28;20415;-71
2020/12/10 01:35:04;;;;;;;0.95;0.70;;;14.10;68.40;;;;;;4961899;28;20041;-71
2020/12/10 01:37:30;;;;;;;1.05;0.77;;;14.10;68.40;;;;;;4996483;28;20044;-71
2020/12/10 01:39:56;;;;;;;0.95;0.93;;;14.10;68.40;;;;;;4994877;28;20038;-72
2020/12/10 01:42:21;;;;;;;1.30;1.00;;;14.10;68.40;;;;;;4970053;28;20499;-72
2020/12/10 01:44:48;;;;;;;1.00;0.90;;;14.10;68.40;;;;;;4992217;28;20117;-71
2020/12/10 01:47:13;;;;;;;0.82;0.73;;;14.10;68.40;;;;;;4988889;28;20436;-72
2020/12/10 01:49:40;;;;;;;0.95;0.80;;;14.10;68.30;;;;;;4995397;28;20109;-71
2020/12/10 01:52:06;;;;;;;1.08;0.98;;;14.10;68.40;;;;;;4994477;28;20046;-71
2020/12/10 01:54:32;;;;;;;0.88;0.73;;;14.20;68.30;;;;;;4988388;28;20035;-72
2020/12/10 01:56:58;;;;;;;0.65;0.65;;;14.10;68.30;;;;;;4974078;28;20038;-71
2020/12/10 01:59:24;;;;;;;0.68;0.68;;;14.10;68.30;;;;;;4995864;28;20391;-72
2020/12/10 02:01:50;;;;;;;1.48;1.13;;;14.10;68.40;;;;;;4993503;28;20034;-71
2020/12/10 02:04:29;;;;;;;0.75;0.70;;;14.10;68.40;;;;;;4995977;28;20034;-71
2020/12/10 02:06:56;;;;;;;1.08;0.98;;;14.10;68.30;;;;;;4977818;28;20500;-71
2020/12/10 02:09:22;;;;;;;0.93;0.90;;;14.10;68.40;;;;;;4995049;28;20161;-72
2020/12/10 02:11:48;;;;;;;0.80;0.80;;;14.10;68.30;;;;;;4994238;28;20129;-72
2020/12/10 02:14:14;;;;;;;0.80;0.80;;;14.10;68.30;;;;;;4992249;28;20046;-72
2020/12/10 02:16:39;;;;;;;0.90;0.70;;;14.10;68.30;;;;;;4994759;28;20039;-72
2020/12/10 02:19:05;;;;;;;0.93;0.85;;;14.10;68.30;;;;;;4986125;28;20447;-72
2020/12/10 02:21:31;;;;;;;1.02;0.85;;;14.10;68.30;;;;;;4976981;28;20039;-72
2020/12/10 02:23:56;;;;;;;1.35;0.70;;;14.10;68.40;;;;;;4994072;28;20395;-72
2020/12/10 02:26:23;;;;;;;1.00;0.80;;;14.10;68.30;;;;;;4993360;28;20471;-75
2020/12/10 02:28:49;;;;;;;0.80;0.80;;;14.10;68.40;;;;;;4984987;28;20504;-72
2020/12/10 02:31:25;;;;;;;0.93;0.88;;;14.10;68.30;;;;;;4979498;28;20070;-72
2020/12/10 02:33:50;;;;;;;0.82;0.80;;;14.10;68.30;;;;;;4996190;28;20049;-73
2020/12/10 02:36:16;;;;;;;0.75;0.73;;;14.10;68.30;;;;;;4994973;28;20030;-72
2020/12/10 02:38:42;;;;;;;0.77;0.77;;;14.10;68.30;;;;;;4991194;28;20113;-73
2020/12/10 02:41:12;;;;;;;1.17;1.08;;;14.10;68.30;;;;;;4994826;28;20369;-71
2020/12/10 02:43:37;;;;;;;0.88;0.88;;;14.10;68.40;;;;;;4976258;28;20121;-73
2020/12/10 02:46:03;;;;;;;0.63;0.63;;;14.10;68.40;;;;;;4976679;28;20133;-72
2020/12/10 02:48:29;;;;;;;1.33;0.90;;;14.10;68.40;;;;;;4994092;28;20472;-72
2020/12/10 02:51:00;;;;;;;1.00;0.63;;;14.10;68.40;;;;;;4991335;28;20491;-72
2020/12/10 02:53:26;;;;;;;1.17;0.90;;;14.10;68.40;;;;;;4994170;28;20109;-72
2020/12/10 02:55:52;;;;;;;1.02;0.93;;;14.10;68.40;;;;;;4994101;28;20130;-72
2020/12/10 02:58:17;;;;;;;1.27;0.80;;;14.10;68.30;;;;;;4991796;28;20030;-72
2020/12/10 03:00:43;;;;;;;1.85;1.35;;;14.10;68.40;;;;;;4975963;28;20034;-72
2020/12/10 03:03:08;;;;;;;1.65;0.90;;;14.10;68.40;;;;;;4994789;28;20034;-72
2020/12/10 03:05:34;;;;;;;0.85;0.80;;;14.10;68.40;;;;;;4994838;28;20438;-72
2020/12/10 03:08:00;;;;;;;0.80;0.80;;;14.10;68.40;;;;;;4994507;28;20055;-72
2020/12/10 03:10:25;;;;;;;0.73;0.70;;;14.10;68.30;;;;;;4994579;28;20134;-72
2020/12/10 03:12:51;;;;;;;1.00;0.88;;;14.10;68.30;;;;;;4993908;28;20054;-72
2020/12/10 03:15:16;;;;;;;0.80;0.80;;;14.10;68.30;;;;;;4994160;28;20549;-72
2020/12/10 03:17:42;;;;;;;0.70;0.70;;;14.10;68.30;;;;;;4993582;28;20031;-72
2020/12/10 03:20:08;;;;;;;0.80;0.60;;;14.10;68.30;;;;;;4981038;28;20063;-72
2020/12/10 03:22:33;;;;;;;0.73;0.73;;;14.10;68.30;;;;;;4974405;28;20520;-72
2020/12/10 03:24:59;;;;;;;1.00;0.82;;;14.10;68.30;;;;;;4995164;28;20170;-71
2020/12/10 03:27:26;;;;;;;1.25;0.70;;;14.10;68.30;;;;;;4976339;28;20085;-71
2020/12/10 03:29:52;;;;;;;0.65;0.65;;;14.10;68.30;;;;;;4993598;28;20117;-74
2020/12/10 03:32:18;;;;;;;0.70;0.70;;;14.10;68.30;;;;;;4978500;28;20114;-72
2020/12/10 03:34:43;;;;;;;0.70;0.70;;;14.10;68.30;;;;;;4991730;28;20038;-72
2020/12/10 03:37:09;;;;;;;1.00;0.90;;;14.10;68.40;;;;;;4993909;28;20049;-71
2020/12/10 03:39:35;;;;;;;0.70;0.70;;;14.10;68.30;;;;;;4977101;28;20531;-71
2020/12/10 03:42:01;;;;;;;0.90;0.70;;;14.10;68.40;;;;;;4990083;28;20472;-73
2020/12/10 03:44:27;;;;;;;1.20;0.90;;;14.10;68.30;;;;;;4975219;28;20396;-71
2020/12/10 03:46:53;;;;;;;1.00;0.90;;;14.10;68.30;;;;;;4993478;28;20034;-71
2020/12/10 03:49:20;;;;;;;0.93;0.75;;;14.10;68.30;;;;;;4993355;28;20053;-72
2020/12/10 03:51:45;;;;;;;0.65;0.65;;;14.10;68.40;;;;;;4991989;28;20047;-71
2020/12/10 03:54:11;;;;;;;0.98;0.80;;;14.10;68.30;;;;;;4977170;28;20039;-71
2020/12/10 03:56:37;;;;;;;1.25;0.80;;;14.10;68.30;;;;;;4983157;28;20035;-72
2020/12/10 03:59:03;;;;;;;1.10;0.90;;;14.10;68.30;;;;;;4993722;28;20116;-71
2020/12/10 04:01:30;;;;;;;0.88;0.85;;;14.10;68.30;;;;;;4988864;28;20046;-72
2020/12/10 04:03:56;;;;;;;0.88;0.80;;;14.10;68.30;;;;;;4971108;28;20038;-71
2020/12/10 04:06:22;;;;;;;0.90;0.77;;;14.10;68.30;;;;;;4966642;28;20050;-72
2020/12/10 04:08:48;;;;;;;0.93;0.85;;;14.10;68.30;;;;;;4974668;28;20043;-71
2020/12/10 04:11:13;;;;;;;1.08;0.80;;;14.10;68.30;;;;;;4973592;28;20097;-72
2020/12/10 04:13:39;;;;;;;0.50;0.50;;;14.10;68.30;;;;;;4984268;28;20472;-72
2020/12/10 04:16:05;;;;;;;1.10;0.90;;;14.10;68.30;;;;;;4992987;28;20100;-71
2020/12/10 04:18:37;;;;;;;0.82;0.80;;;14.10;68.30;;;;;;4992417;28;20161;-71
2020/12/10 04:21:02;;;;;;;0.98;0.77;;;14.10;68.30;;;;;;4992583;28;20151;-72
2020/12/10 04:23:28;;;;;;;0.57;0.57;;;14.10;68.30;;;;;;4976895;28;20543;-73
2020/12/10 04:25:54;;;;;;;0.98;0.82;;;14.10;68.30;;;;;;4992377;28;20388;-72
2020/12/10 04:28:21;;;;;;;1.17;0.77;;;14.10;68.30;;;;;;4966145;28;20038;-71
2020/12/10 04:30:47;;;;;;;0.52;0.52;;;14.10;68.30;;;;;;4974869;28;20034;-71
2020/12/10 04:33:13;;;;;;;0.73;0.73;;;14.10;68.30;;;;;;4985378;28;20085;-72
2020/12/10 04:35:39;;;;;;;4.43;2.15;;;14.10;68.30;;;;;;4989947;28;20109;-71
2020/12/10 04:38:05;;;;;;;0.65;0.65;;;14.10;68.30;;;;;;4975173;28;20468;-71
2020/12/10 04:40:32;;;;;;;0.82;0.70;;;14.10;68.30;;;;;;4993019;28;20030;-72
2020/12/10 04:43:00;;;;;;;0.70;0.70;;;14.10;68.30;;;;;;4993317;28;20125;-71
2020/12/10 04:45:25;;;;;;;1.20;0.77;;;14.10;68.30;;;;;;4992123;28;20519;-71
2020/12/10 04:47:52;;;;;;;0.90;0.90;;;14.10;68.30;;;;;;4990557;28;20113;-71
2020/12/10 04:50:22;;;;;;;1.02;0.90;;;14.10;68.30;;;;;;4981807;28;20038;-72
2020/12/10 04:52:50;;;;;;;0.80;0.70;;;14.10;68.30;;;;;;4991518;28;20049;-72
2020/12/10 04:55:16;;;;;;;1.03;0.77;;;14.10;68.30;;;;;;4992885;28;20435;-72
2020/12/10 04:57:43;;;;;;;0.82;0.70;;;14.10;68.30;;;;;;4974918;28;20039;-72
2020/12/10 05:00:09;;;;;;;1.00;0.70;;;14.10;68.30;;;;;;4990733;28;20045;-73
2020/12/10 05:02:35;;;;;;;1.17;0.93;;;14.10;68.30;;;;;;4971822;28;20038;-71
2020/12/10 05:05:19;;;;;;;0.88;0.60;;;14.10;68.30;;;;;;4991589;28;20441;-72
2020/12/10 05:07:44;;;;;;;0.88;0.70;;;14.10;68.30;;;;;;4972325;28;20061;-72
2020/12/10 05:10:10;;;;;;;1.30;1.08;;;14.10;68.30;;;;;;4992279;28;20035;-71
2020/12/10 05:12:36;;;;;;;0.80;0.80;;;14.10;68.30;;;;;;4991339;28;20042;-72
2020/12/10 05:15:01;;;;;;;0.77;0.77;;;14.10;68.30;;;;;;4989340;28;20443;-73
2020/12/10 05:17:30;;;;;;;1.05;0.80;;;14.10;68.30;;;;;;4991656;28;20034;-72
2020/12/10 05:19:57;;;;;;;0.55;0.55;;;14.10;68.30;;;;;;4973322;28;20035;-72
2020/12/10 05:22:23;;;;;;;0.63;0.60;;;14.10;68.30;;;;;;4991657;28;20038;-73
2020/12/10 05:25:02;;;;;;;0.80;0.80;;;14.10;68.30;;;;;;4984625;28;20042;-73
2020/12/10 05:27:29;;;;;;;0.80;0.70;;;14.10;68.30;;;;;;4992100;28;20480;-73
2020/12/10 05:29:54;;;;;;;1.00;0.80;;;14.10;68.30;;;;;;4990108;28;20038;-72
2020/12/10 05:32:42;;;;;;;1.40;1.15;;;14.10;68.30;;;;;;4992230;28;20044;-73
2020/12/10 05:35:13;;;;;;;0.60;0.60;;;14.10;68.30;;;;;;4976061;28;20034;-72
2020/12/10 05:37:40;;;;;;;0.93;0.80;;;14.10;68.30;;;;;;4971843;28;20049;-73
2020/12/10 05:40:06;;;;;;;1.00;0.50;;;14.10;68.30;;;;;;4989028;28;20499;-73
2020/12/10 05:42:43;;;;;;;0.60;0.60;;;14.10;68.30;;;;;;4980460;28;20037;-72
2020/12/10 05:45:17;;;;;;;0.65;0.60;;;14.10;68.30;;;;;;4990928;28;20395;-73
2020/12/10 05:47:50;;;;;;;0.70;0.70;;;14.10;68.30;;;;;;5002989;28;20496;-73
2020/12/10 05:50:24;;;;;;;1.08;0.70;;;14.10;68.30;;;;;;4972546;28;20084;-72
2020/12/10 05:53:01;;;;;;;0.82;0.82;;;14.10;68.30;;;;;;4989973;28;20557;-73
2020/12/10 05:55:29;;;;;;;0.68;0.60;;;14.10;68.30;;;;;;4990458;28;20511;-74
2020/12/10 05:57:56;;;;;;;0.88;0.88;;;14.10;68.20;;;;;;4990062;28;20121;-73
2020/12/10 06:00:22;;;;;;;0.95;0.88;;;14.10;68.20;;;;;;4988257;28;20118;-73
2020/12/10 06:02:49;;;;;;;0.70;0.70;;;14.10;68.30;;;;;;4989904;28;20037;-72
2020/12/10 06:05:16;;;;;;;0.50;0.50;;;14.10;68.30;;;;;;4980673;28;20038;-74
2020/12/10 06:08:05;;;;;;;1.10;0.70;;;14.10;68.20;;;;;;4990437;28;20053;-71
2020/12/10 06:10:38;;;;;;;0.70;0.70;;;14.10;68.30;;;;;;4971882;28;20054;-72
2020/12/10 06:13:05;;;;;;;0.73;0.73;;;14.10;68.20;;;;;;4962579;28;20526;-71
2020/12/10 06:15:34;;;;;;;0.90;0.80;;;14.10;68.30;;;;;;4991427;28;20065;-72
2020/12/10 06:18:09;;;;;;;0.77;0.70;;;14.10;68.30;;;;;;4974487;28;20045;-72
2020/12/10 06:20:40;;;;;;;0.85;0.80;;;14.10;68.30;;;;;;4993984;28;20035;-73
2020/12/10 06:23:33;;;;;;;1.05;0.95;;;14.10;68.30;;;;;;4971691;28;20411;-75
2020/12/10 06:26:25;;;;;;;1.00;0.80;;;14.10;68.30;;;;;;4984788;28;20046;-73
2020/12/10 06:29:17;;;;;;;0.75;0.70;;;14.10;68.20;;;;;;4978932;28;20078;-71
2020/12/10 06:32:07;;;;;;;0.65;0.63;;;14.10;68.20;;;;;;4993967;28;20035;-71
2020/12/10 06:34:36;;;;;;;0.60;0.60;;;14.10;68.20;;;;;;4991115;28;20026;-72
2020/12/10 06:37:18;;;;;;;;;;;14.10;68.20;;;;;;4990042;28;20089;-72
2020/12/10 06:39:45;;;;;;;0.73;0.65;;;14.10;68.30;;;;;;4976524;28;19918;-71
2020/12/10 06:42:11;;;;;;;0.55;0.55;;;14.10;68.20;;;;;;4978068;28;20391;-72
2020/12/10 06:44:37;;;;;;;0.80;0.57;;;14.10;68.20;;;;;;4973537;28;20125;-73
2020/12/10 06:47:04;;;;;;;0.88;0.75;;;14.10;68.30;;;;;;4973818;28;20034;-72
2020/12/10 06:49:31;;;;;;;1.00;0.90;;;14.10;68.30;;;;;;5002760;28;20039;-72
2020/12/10 06:52:12;;;;;;;0.63;0.60;;;14.20;68.30;;;;;;4993859;28;20045;-73
2020/12/10 06:55:07;;;;;;;0.60;0.60;;;14.10;68.20;;;;;;4996295;28;20428;-74
2020/12/10 06:57:52;;;;;;;0.60;0.60;;;14.10;68.30;;;;;;4992852;28;20043;-73
2020/12/10 07:00:40;;;;;;;0.57;0.52;;;14.10;68.20;;;;;;4984390;28;20026;-73
2020/12/10 07:03:29;;;;;;;0.70;0.63;;;14.10;68.20;;;;;;4983645;28;20066;-73
2020/12/10 07:05:55;;;;;;;0.75;0.75;;;14.10;68.20;;;;;;4987671;28;20483;-73
2020/12/10 07:08:21;;;;;;;0.68;0.68;;;14.10;68.20;;;;;;4991759;28;20151;-73
2020/12/10 07:10:50;;;;;;;0.88;0.60;;;14.10;68.30;;;;;;4993610;28;20062;-74
2020/12/10 07:13:29;;;;;;;0.60;0.60;;;14.10;68.20;;;;;;4994503;28;20061;-72
2020/12/10 07:15:55;;;;;;;0.65;0.60;;;14.10;68.30;;;;;;4992964;28;20042;-73
2020/12/10 07:18:20;;;;;;;0.80;0.80;;;14.10;68.20;;;;;;4977230;28;20376;-73
2020/12/10 07:20:46;;;;;;;0.60;0.60;;;14.10;68.20;;;;;;4977505;28;20088;-73
2020/12/10 07:23:12;;;;;;;0.65;0.50;;;14.10;68.20;;;;;;4982817;28;20030;-73
2020/12/10 07:25:38;;;;;;;0.70;0.70;;;14.10;68.20;;;;;;4977095;28;20125;-73
2020/12/10 07:28:04;;;;;;;1.75;0.60;;;14.10;68.20;;;;;;4974626;28;20038;-76
2020/12/10 07:30:30;;;;;;;0.90;0.70;;;14.20;68.20;;;;;;4990302;28;20045;-72
2020/12/10 07:32:59;;;;;;;1.00;0.80;;;14.10;68.20;;;;;;4994122;28;20038;-72
2020/12/10 07:35:35;;;;;;;0.82;0.57;;;14.10;68.20;;;;;;4993477;28;20553;-72
2020/12/10 07:38:12;;;;;;;0.70;0.60;;;14.10;68.20;;;;;;4976094;28;20070;-72
2020/12/10 07:40:38;;;;;;;0.60;0.60;;;14.10;68.20;;;;;;4993506;28;20034;-73
2020/12/10 07:43:09;;;;;;;0.65;0.65;;;14.10;68.20;;;;;;4993862;28;20452;-72
2020/12/10 07:45:35;;;;;;;0.70;0.70;;;14.20;68.20;;;;;;4991364;28;20130;-73
2020/12/10 07:48:03;;;;;;;0.60;0.60;;;14.20;68.20;;;;;;4993602;28;20531;-73
2020/12/10 07:50:31;;;;;;;0.60;0.60;;;14.10;68.20;;;;;;4990066;28;20030;-73
2020/12/10 07:52:59;;;;;;;0.82;0.77;;;14.20;68.10;;;;;;4971618;28;20497;-72
2020/12/10 07:55:29;;;;;;;0.93;0.60;;;14.10;68.10;;;;;;4993633;28;20060;-73
2020/12/10 07:58:06;;;;;;;0.65;0.63;;;14.10;68.20;;;;;;4993154;28;20396;-73
2020/12/10 08:00:33;;;;;;;0.40;0.40;;;14.10;68.20;;;;;;4992068;28;20046;-73
2020/12/10 08:03:25;;;;;;;0.65;0.65;;;14.10;68.20;;;;;;4990139;28;20051;-73
2020/12/10 08:06:09;;;;;;;0.70;0.70;;;14.10;68.10;;;;;;4992250;28;20467;-72
2020/12/10 08:08:42;;;;;;;1.13;0.75;;;14.20;68.10;;;;;;4974777;28;20056;-73
2020/12/10 08:11:15;;;;;;;0.57;0.57;;;14.20;68.10;;;;;;4989036;28;20049;-74
2020/12/10 08:14:09;;;;;;;0.52;0.52;;;14.20;68.10;;;;;;4991989;28;20034;-72
2020/12/10 08:16:42;;;;;;;0.63;0.60;;;14.20;68.10;;;;;;4989275;28;20043;-73
2020/12/10 08:19:19;;;;;;;0.47;0.47;;;14.20;68.10;;;;;;4991188;28;20038;-77
2020/12/10 08:21:47;;;;;;;0.50;0.50;;;14.20;68.10;;;;;;4991385;28;20046;-72
2020/12/10 08:24:13;;;;;;;2.50;0.90;;;14.20;68.10;;;;;;4974106;28;20066;-73
2020/12/10 08:26:56;;;;;;;0.80;0.80;;;14.20;68.10;;;;;;4990733;28;20046;-71
2020/12/10 08:29:22;;;;;;;0.70;0.60;;;14.20;68.10;;;;;;4987580;28;20118;-72
2020/12/10 08:31:47;;;;;;;0.95;0.80;;;14.20;68.10;;;;;;4992033;28;20058;-72
2020/12/10 08:34:17;;;;;;;0.50;0.50;;;14.20;68.10;;;;;;5001787;28;20045;-73
2020/12/10 08:36:44;;;;;;;0.50;0.50;;;14.20;68.10;;;;;;4991311;28;20126;-72
2020/12/10 08:39:09;;;;;;;0.80;0.80;;;14.20;68.10;;;;;;4989584;28;20035;-73
2020/12/10 08:41:37;;;;;;;0.60;0.60;;;14.20;68.10;;;;;;4991503;28;20045;-74
2020/12/10 08:44:06;;;;;;;0.70;0.65;;;14.20;68.10;;;;;;4992009;28;20101;-73
2020/12/10 08:46:32;;;;;;;0.63;0.63;;;14.20;68.10;;;;;;4990547;28;20039;-75
2020/12/10 08:49:17;;;;;;;0.40;0.40;;;14.20;68.10;;;;;;4986393;28;20039;-73
2020/12/10 08:51:45;;;;;;;0.98;0.70;;;14.20;68.10;;;;;;4975108;28;20141;-75
2020/12/10 08:54:11;;;;;;;0.60;0.60;;;14.20;68.00;;;;;;4991088;28;20039;-73
2020/12/10 08:56:38;;;;;;;0.65;0.60;;;14.20;68.00;;;;;;4974044;28;20446;-73
2020/12/10 08:59:05;;;;;;;0.68;0.55;;;14.20;68.00;;;;;;4974338;28;20028;-73
2020/12/10 09:01:31;;;;;;;0.77;0.77;;;14.20;68.00;;;;;;4974533;28;20069;-73
2020/12/10 09:03:57;;;;;;;0.70;0.70;;;14.20;68.00;;;;;;4974169;28;20100;-74
2020/12/10 09:06:30;;;;;;;0.52;0.50;;;14.20;68.00;;;;;;4991116;28;20495;-74
2020/12/10 09:08:56;;;;;;;0.70;0.63;;;14.20;67.90;;;;;;4973504;28;20765;-74
2020/12/10 09:11:22;;;;;;;0.57;0.50;;;14.20;67.90;;;;;;4980224;28;20126;-74
2020/12/10 09:13:47;;;;;;;0.70;0.60;;;14.20;67.90;;;;;;4991235;28;20061;-74
2020/12/10 09:16:17;;;;;;;0.70;0.70;;;14.20;67.80;;;;;;4991093;28;20031;-75
2020/12/10 09:18:43;;;;;;;0.63;0.63;;;14.30;67.80;;;;;;4986325;28;20026;-73
2020/12/10 09:21:08;;;;;;;0.70;0.70;;;14.30;67.80;;;;;;4988197;28;20562;-74
2020/12/10 09:23:43;;;;;;;1.00;0.52;;;14.20;67.80;;;;;;4990859;28;20034;-74
2020/12/10 09:26:09;;;;;;;1.05;0.80;;;14.30;67.80;;;;;;4972946;28;20035;-75
2020/12/10 09:28:34;;;;;;;4.13;0.80;;;14.30;67.80;;;;;;4989507;28;20040;-75
2020/12/10 09:31:00;;;;;;;2.50;0.73;;;14.20;67.80;;;;;;4971171;28;20062;-71
2020/12/10 09:33:25;;;;;;;7.45;0.98;;;14.30;68.10;;;;;;4988676;28;20046;-71
2020/12/10 09:35:51;;;;;;;3.13;0.90;;;14.30;68.00;;;;;;4992100;28;20042;-72
2020/12/10 09:38:17;;;;;;;2.72;1.00;;;14.30;67.90;;;;;;4990601;28;20100;-71
2020/12/10 09:40:42;;;;;;;4.28;1.10;;;14.30;67.90;;;;;;4990089;28;20114;-71
2020/12/10 09:43:08;;;;;;;0.80;0.68;;;14.30;67.90;;;;;;4989554;28;20045;-71
2020/12/10 09:45:34;;;;;;;1.63;0.80;;;14.30;67.90;;;;;;4987678;28;20049;-71
2020/12/10 09:48:01;;;;;;;5.63;0.90;;;14.30;67.90;;;;;;4989722;28;20553;-71
2020/12/10 09:50:32;;;;;;;2.60;0.70;;;14.30;67.90;;;;;;4989936;28;20027;-71
2020/12/10 09:55:43;;;;;;;2.35;0.73;;;14.30;67.70;;;;;;4992912;28;20464;-72
2020/12/10 09:58:09;;;;;;;2.35;0.90;;;14.30;67.70;;;;;;4994104;28;20096;-71
2020/12/10 10:00:34;;;;;;;1.05;0.52;;;14.30;67.70;;;;;;4993494;28;20648;-71
2020/12/10 10:03:05;;;;;;;2.63;0.93;;;14.40;67.60;;;;;;4993870;28;20040;-71
2020/12/10 10:05:32;;;;;;;0.80;0.80;;;14.30;67.60;;;;;;4975827;28;20046;-71
2020/12/10 10:07:58;;;;;;;1.08;0.90;;;14.30;67.60;;;;;;4989794;28;20043;-72
2020/12/10 10:10:23;;;;;;;1.23;0.80;;;14.40;67.50;;;;;;4978783;28;20035;-71
2020/12/10 10:12:50;;;;;;;1.30;0.90;;;14.40;67.50;;;;;;4993061;28;20070;-72
2020/12/10 10:15:16;;;;;;;1.52;0.73;;;14.40;67.50;;;;;;4978974;28;20039;-72
2020/12/10 10:17:42;;;;;;;2.28;0.98;;;14.40;67.50;;;;;;4992179;28;20121;-72
2020/12/10 10:20:08;;;;;;;1.15;0.70;;;14.40;67.50;;;;;;4994229;28;20146;-71
2020/12/10 10:22:38;;;;;;;2.58;1.40;;;14.40;67.50;;;;;;4991292;28;20046;-71
2020/12/10 10:25:04;;;;;;;2.10;0.90;;;14.40;67.50;;;;;;4975884;28;20569;-72
2020/12/10 10:27:30;;;;;;;1.67;1.02;;;14.40;67.50;;;;;;4993475;28;20038;-72
2020/12/10 10:29:55;;;;;;;3.25;0.85;;;14.40;67.50;;;;;;4993121;28;20026;-73
2020/12/10 10:32:21;;;;;;;1.38;0.65;;;14.40;67.60;;;;;;4991300;28;20057;-71
2020/12/10 10:34:47;;;;;;;1.00;0.70;;;14.30;67.60;;;;;;4975032;28;20041;-71
2020/12/10 10:37:15;;;;;;;4.80;0.95;;;14.30;67.60;;;;;;4975078;28;20383;-71
2020/12/10 10:39:40;;;;;;;1.00;0.90;;;14.40;67.60;;;;;;4991262;28;20038;-71
2020/12/10 10:42:06;;;;;;;1.15;0.82;;;14.30;67.60;;;;;;4992039;28;20415;-72
2020/12/10 10:44:32;;;;;;;2.13;0.77;;;14.30;67.70;;;;;;4990809;28;20092;-71
2020/12/10 10:46:58;;;;;;;1.00;0.80;;;14.30;67.70;;;;;;4993870;28;20077;-72
2020/12/10 10:49:23;;;;;;;0.70;0.70;;;14.30;67.60;;;;;;5003978;28;20091;-71
2020/12/10 10:51:50;;;;;;;2.42;1.10;;;14.30;67.60;;;;;;4993472;28;20525;-71
2020/12/10 10:54:16;;;;;;;1.27;0.90;;;14.30;67.60;;;;;;4988645;28;20041;-71
2020/12/10 10:56:42;;;;;;;1.10;1.00;;;14.30;67.60;;;;;;4993458;28;20384;-72
2020/12/10 10:59:08;;;;;;;0.98;0.88;;;14.40;67.60;;;;;;4991338;28;20065;-71
2020/12/10 11:01:34;;;;;;;3.55;0.88;;;14.30;67.50;;;;;;4993120;28;20043;-71
2020/12/10 11:04:00;;;;;;;1.38;0.82;;;14.30;67.50;;;;;;4968918;28;20046;-71
2020/12/10 11:06:25;;;;;;;1.13;0.60;;;14.30;67.50;;;;;;4991085;28;20124;-70
2020/12/10 11:08:51;;;;;;;0.88;0.60;;;14.40;67.50;;;;;;4990979;28;20377;-71
2020/12/10 11:11:21;;;;;;;1.70;0.70;;;14.40;67.50;;;;;;4992595;28;20065;-71
2020/12/10 11:13:48;;;;;;;2.85;0.75;;;14.30;67.60;;;;;;4992556;28;20041;-72
2020/12/10 11:16:14;;;;;;;1.58;0.98;;;14.30;67.60;;;;;;4989792;28;20034;-71
2020/12/10 11:18:45;;;;;;;0.93;0.68;;;14.30;67.60;;;;;;4973113;28;20085;-72
2020/12/10 11:21:13;;;;;;;1.83;0.80;;;14.30;67.60;;;;;;4990599;28;20038;-72
2020/12/10 11:23:38;;;;;;;2.35;0.82;;;14.30;67.60;;;;;;4992910;28;20046;-71
2020/12/10 11:26:05;;;;;;;0.63;0.63;;;14.40;67.60;;;;;;4990503;28;20066;-72
2020/12/10 11:28:31;;;;;;;0.75;0.70;;;14.30;67.60;;;;;;4974301;28;20089;-72
2020/12/10 11:30:57;;;;;;;1.25;0.80;;;14.30;67.60;;;;;;4991096;28;20030;-72
2020/12/10 11:33:23;;;;;;;0.88;0.73;;;14.30;67.60;;;;;;4989893;28;20038;-72
2020/12/10 11:35:49;;;;;;;1.80;0.75;;;14.30;67.60;;;;;;4992416;28;20038;-71
2020/12/10 11:38:15;;;;;;;1.27;0.68;;;14.30;67.60;;;;;;4989299;28;20622;-72
2020/12/10 11:40:41;;;;;;;1.85;0.63;;;14.30;67.60;;;;;;4991408;28;20066;-72
2020/12/10 11:43:07;;;;;;;0.75;0.75;;;14.30;67.50;;;;;;4970903;28;20500;-72
2020/12/10 11:45:33;;;;;;;0.77;0.65;;;14.30;67.50;;;;;;4969651;28;20035;-72
2020/12/10 11:48:03;;;;;;;0.73;0.60;;;14.40;67.50;;;;;;4985995;28;20617;-71
2020/12/10 11:50:31;;;;;;;0.82;0.40;;;14.40;67.40;;;;;;4991555;28;20031;-71
2020/12/10 11:52:57;;;;;;;0.82;0.82;;;14.40;67.40;;;;;;4991704;28;20042;-75
2020/12/10 11:55:22;;;;;;;1.08;0.60;;;14.40;67.50;;;;;;4991415;28;20034;-71
2020/12/10 11:57:49;;;;;;;1.05;0.80;;;14.40;67.50;;;;;;4990443;28;20044;-72
2020/12/10 12:00:15;;;;;;;0.90;0.57;;;14.30;67.60;;;;;;4971458;28;20130;-71
2020/12/10 12:02:41;;;;;;;2.28;0.60;;;14.40;67.60;;;;;;4990807;28;20113;-71
2020/12/10 12:05:08;;;;;;;1.10;0.68;;;14.40;67.50;;;;;;4972487;28;20038;-71
2020/12/10 12:07:34;;;;;;;1.02;0.45;;;14.40;67.60;;;;;;4970531;28;20444;-71
2020/12/10 12:10:00;;;;;;;2.88;0.50;;;14.40;67.60;;;;;;4967836;28;20035;-73
2020/12/10 12:12:26;;;;;;;2.30;1.45;;;14.40;67.50;;;;;;4969540;28;20047;-71
2020/12/10 12:14:51;;;;;;;2.65;0.63;;;14.40;67.50;;;;;;4971935;28;20142;-72
2020/12/10 12:17:17;;;;;;;1.05;0.63;;;14.40;67.60;;;;;;4984485;28;20539;-72
2020/12/10 12:19:43;;;;;;;1.13;0.68;;;14.30;67.60;;;;;;4970779;28;20031;-72
2020/12/10 12:22:09;;;;;;;0.77;0.60;;;14.40;67.60;;;;;;4971000;28;20050;-72
2020/12/10 12:24:35;;;;;;;0.75;0.60;;;14.40;67.50;;;;;;4969452;28;20042;-71
2020/12/10 12:27:04;;;;;;;0.75;0.75;;;14.40;67.60;;;;;;4969755;28;20909;-71
2020/12/10 12:29:31;;;;;;;1.15;0.73;;;14.40;67.60;;;;;;4969859;28;20035;-72
2020/12/10 12:31:57;;;;;;;1.02;0.70;;;14.40;67.60;;;;;;4970796;28;20047;-71
2020/12/10 12:34:23;;;;;;;4.07;0.73;;;14.30;67.60;;;;;;4985827;28;20035;-72
2020/12/10 12:36:49;;;;;;;0.82;0.70;;;14.30;67.70;;;;;;4980663;28;20031;-75
2020/12/10 12:39:14;;;;;;;1.33;0.60;;;14.30;67.70;;;;;;4970589;28;20073;-71
2020/12/10 12:41:40;;;;;;;0.95;0.75;;;14.30;67.70;;;;;;4969928;28;20062;-71
2020/12/10 12:44:06;;;;;;;1.40;0.63;;;14.30;67.70;;;;;;4969210;28;20588;-71
2020/12/10 12:46:32;;;;;;;0.70;0.60;;;14.30;67.80;;;;;;4985213;28;20045;-72
2020/12/10 12:48:58;;;;;;;2.05;0.50;;;14.30;67.80;;;;;;4975793;28;20043;-72
2020/12/10 12:51:24;;;;;;;0.73;0.55;;;14.30;67.70;;;;;;4971241;28;20030;-71
2020/12/10 12:53:52;;;;;;;1.38;0.70;;;14.30;67.70;;;;;;4970571;28;20432;-72